Time,TemperatureF,DewpointF,PressureIn,WindDirection,WindDirectionDegrees,WindSpeedMPH,WindSpeedGustMPH,Humidity,HourlyPrecipIn,Conditions,Clouds,dailyrainin,SoftwareType,DateUTC
2013-01-17 00:05:00,41.9,19.4,29.74,SSW,208,0.0,0.0,40,0.00,,,0.00,WeatherTracker,2013-01-17 06:05:00,
2013-01-17 00:15:00,41.9,19.4,29.74,SSW,208,0.0,0.0,40,0.00,,,0.00,WeatherTracker,2013-01-17 06:15:00,
2013-01-17 00:25:00,41.5,19.0,29.74,SSW,208,0.0,0.0,40,0.00,,,0.00,WeatherTracker,2013-01-17 06:25:00,
2013-01-17 00:35:00,41.0,18.5,29.74,SSW,208,0.0,0.0,40,0.00,,,0.00,WeatherTracker,2013-01-17 06:35:00,
2013-01-17 00:40:00,40.6,18.2,29.74,SSW,208,0.0,0.0,40,0.00,,,0.00,WeatherTracker,2013-01-17 06:40:00,
2013-01-17 00:50:00,40.3,18.5,29.74,SSW,208,0.0,0.0,41,0.00,,,0.00,WeatherTracker,2013-01-17 06:50:00,
2013-01-17 01:00:00,39.9,18.1,29.74,SSW,208,0.0,0.0,41,0.00,,,0.00,WeatherTracker,2013-01-17 07:00:00,
2013-01-17 01:05:00,39.9,18.1,29.74,SSW,208,0.0,0.0,41,0.00,,,0.00,WeatherTracker,2013-01-17 07:05:00,
2013-01-17 01:15:00,39.4,17.7,29.74,SSW,208,0.0,0.0,41,0.00,,,0.00,WeatherTracker,2013-01-17 07:15:00,
2013-01-17 01:25:00,39.4,18.2,29.74,SSW,208,0.0,0.0,42,0.00,,,0.00,WeatherTracker,2013-01-17 07:25:00,
2013-01-17 01:35:00,39.2,18.6,29.74,SSW,208,0.0,0.0,43,0.00,,,0.00,WeatherTracker,2013-01-17 07:35:00,
2013-01-17 01:45:00,38.8,18.8,29.74,SSW,208,0.0,0.0,44,0.00,,,0.00,WeatherTracker,2013-01-17 07:45:00,
2013-01-17 01:50:00,38.7,18.6,29.74,SSW,208,0.0,0.0,44,0.00,,,0.00,WeatherTracker,2013-01-17 07:50:00,
2013-01-17 02:00:00,38.5,19.5,29.74,SSW,208,0.0,0.0,46,0.00,,,0.00,WeatherTracker,2013-01-17 08:00:00,
2013-01-17 02:10:00,38.3,19.4,29.77,SSW,208,0.0,0.0,46,0.00,,,0.00,WeatherTracker,2013-01-17 08:10:00,
2013-01-17 02:15:00,38.1,19.2,29.77,SSW,208,0.0,0.0,46,0.00,,,0.00,WeatherTracker,2013-01-17 08:15:00,
2013-01-17 02:25:00,38.1,19.7,29.77,SSW,208,0.0,0.0,47,0.00,,,0.00,WeatherTracker,2013-01-17 08:25:00,
2013-01-17 02:30:00,37.9,19.0,29.77,SSW,208,0.0,0.0,46,0.00,,,0.00,WeatherTracker,2013-01-17 08:30:00,
2013-01-17 02:35:00,37.9,19.0,29.77,SSW,208,0.0,0.0,46,0.00,,,0.00,WeatherTracker,2013-01-17 08:35:00,
2013-01-17 02:45:00,38.1,18.7,29.77,SSW,208,0.0,0.0,45,0.00,,,0.00,WeatherTracker,2013-01-17 08:45:00,
2013-01-17 02:55:00,38.1,17.6,29.77,SSW,208,0.0,0.0,43,0.00,,,0.00,WeatherTracker,2013-01-17 08:55:00,
2013-01-17 03:00:00,38.1,17.1,29.77,SSW,208,0.0,0.0,42,0.00,,,0.00,WeatherTracker,2013-01-17 09:00:00,
2013-01-17 03:10:00,38.3,17.2,29.77,SSW,208,0.0,0.0,42,0.00,,,0.00,WeatherTracker,2013-01-17 09:10:00,
2013-01-17 03:20:00,38.1,16.5,29.77,SSW,208,0.0,0.0,41,0.00,,,0.00,WeatherTracker,2013-01-17 09:20:00,
2013-01-17 03:25:00,37.9,16.4,29.77,SSW,208,0.0,0.0,41,0.00,,,0.00,WeatherTracker,2013-01-17 09:25:00,
2013-01-17 03:35:00,37.6,16.6,29.77,SSW,208,0.0,0.0,42,0.00,,,0.00,WeatherTracker,2013-01-17 09:35:00,
2013-01-17 03:45:00,37.9,16.9,29.77,SSW,208,0.0,0.0,42,0.00,,,0.00,WeatherTracker,2013-01-17 09:45:00,
2013-01-17 03:50:00,37.9,16.9,29.77,SSW,208,0.0,0.0,42,0.00,,,0.00,WeatherTracker,2013-01-17 09:50:00,
2013-01-17 04:00:00,38.1,17.1,29.77,SSW,208,0.0,0.0,42,0.00,,,0.00,WeatherTracker,2013-01-17 10:00:00,
2013-01-17 04:10:00,38.1,17.1,29.77,SSW,208,0.0,0.0,42,0.00,,,0.00,WeatherTracker,2013-01-17 10:10:00,
2013-01-17 04:20:00,38.3,17.2,29.77,SSW,208,0.0,0.0,42,0.00,,,0.00,WeatherTracker,2013-01-17 10:20:00,
2013-01-17 04:30:00,38.3,17.2,29.77,SSW,208,0.0,0.0,42,0.00,,,0.00,WeatherTracker,2013-01-17 10:30:00,
2013-01-17 04:35:00,38.3,17.2,29.77,SSW,208,0.0,0.0,42,0.00,,,0.00,WeatherTracker,2013-01-17 10:35:00,
2013-01-17 04:40:00,38.3,17.8,29.77,SSW,208,0.0,0.0,43,0.00,,,0.00,WeatherTracker,2013-01-17 10:40:00,
2013-01-17 04:45:00,38.1,17.6,29.77,SSW,208,0.0,0.0,43,0.00,,,0.00,WeatherTracker,2013-01-17 10:45:00,
2013-01-17 04:55:00,37.9,17.5,29.77,SSW,208,0.0,0.0,43,0.00,,,0.00,WeatherTracker,2013-01-17 10:55:00,
2013-01-17 05:05:00,37.8,17.8,29.80,SSW,208,0.0,0.0,44,0.00,,,0.00,WeatherTracker,2013-01-17 11:05:00,
2013-01-17 05:10:00,37.6,17.7,29.80,SSW,208,0.0,0.0,44,0.00,,,0.00,WeatherTracker,2013-01-17 11:10:00,
2013-01-17 05:20:00,37.0,17.7,29.80,SSW,208,0.0,0.0,45,0.00,,,0.00,WeatherTracker,2013-01-17 11:20:00,
2013-01-17 05:30:00,36.7,18.4,29.80,SSW,208,0.0,0.0,47,0.00,,,0.00,WeatherTracker,2013-01-17 11:30:00,
2013-01-17 05:40:00,36.5,18.7,29.80,SSW,208,0.0,0.0,48,0.00,,,0.00,WeatherTracker,2013-01-17 11:40:00,
2013-01-17 05:45:00,36.3,18.5,29.80,SSW,208,0.0,0.0,48,0.00,,,0.00,WeatherTracker,2013-01-17 11:45:00,
2013-01-17 05:55:00,36.1,18.8,29.80,SSW,208,0.0,0.0,49,0.00,,,0.00,WeatherTracker,2013-01-17 11:55:00,
2013-01-17 06:05:00,36.0,18.7,29.80,SSW,208,0.0,0.0,49,0.00,,,0.00,WeatherTracker,2013-01-17 12:05:00,
2013-01-17 06:10:00,36.1,19.3,29.80,SSW,208,0.0,0.0,50,0.00,,,0.00,WeatherTracker,2013-01-17 12:10:00,
2013-01-17 06:20:00,35.8,19.0,29.80,SSW,208,0.0,0.0,50,0.00,,,0.00,WeatherTracker,2013-01-17 12:20:00,
2013-01-17 06:30:00,35.8,19.0,29.80,SSW,208,0.0,0.0,50,0.00,,,0.00,WeatherTracker,2013-01-17 12:30:00,
2013-01-17 06:40:00,35.8,19.0,29.83,SSW,208,0.0,0.0,50,0.00,,,0.00,WeatherTracker,2013-01-17 12:40:00,
2013-01-17 06:50:00,35.6,18.8,29.83,SSW,208,0.0,0.0,50,0.00,,,0.00,WeatherTracker,2013-01-17 12:50:00,
2013-01-17 06:55:00,35.6,18.8,29.83,SSW,208,0.0,0.0,50,0.00,,,0.00,WeatherTracker,2013-01-17 12:55:00,
2013-01-17 07:05:00,35.4,19.1,29.83,SSW,208,0.0,0.0,51,0.00,,,0.00,WeatherTracker,2013-01-17 13:05:00,
2013-01-17 07:15:00,35.6,19.3,29.83,SSW,208,0.0,0.0,51,0.00,,,0.00,WeatherTracker,2013-01-17 13:15:00,
2013-01-17 07:25:00,36.0,19.6,29.83,SSW,208,0.0,0.0,51,0.00,,,0.00,WeatherTracker,2013-01-17 13:25:00,
2013-01-17 07:30:00,36.0,19.6,29.83,SSW,208,0.0,0.0,51,0.00,,,0.00,WeatherTracker,2013-01-17 13:30:00,
2013-01-17 07:40:00,36.1,19.8,29.83,SSW,208,0.0,0.0,51,0.00,,,0.00,WeatherTracker,2013-01-17 13:40:00,
2013-01-17 07:50:00,36.0,19.6,29.85,SSW,208,0.0,0.0,51,0.00,,,0.00,WeatherTracker,2013-01-17 13:50:00,
2013-01-17 08:00:00,36.1,20.2,29.85,SSW,208,0.0,0.0,52,0.00,,,0.00,WeatherTracker,2013-01-17 14:00:00,
2013-01-17 08:05:00,36.3,20.4,29.85,SSW,208,0.0,0.0,52,0.00,,,0.00,WeatherTracker,2013-01-17 14:05:00,
2013-01-17 08:10:00,36.9,21.3,29.85,SSW,208,0.0,0.0,53,0.00,,,0.00,WeatherTracker,2013-01-17 14:10:00,
2013-01-17 08:15:00,37.4,21.4,29.85,SSW,208,0.0,0.0,52,0.00,,,0.00,WeatherTracker,2013-01-17 14:15:00,
2013-01-17 08:25:00,40.5,24.7,29.85,SSW,208,0.0,0.0,53,0.00,,,0.00,WeatherTracker,2013-01-17 14:25:00,
2013-01-17 08:30:00,42.1,25.3,29.85,SSW,208,0.0,0.0,51,0.00,,,0.00,WeatherTracker,2013-01-17 14:30:00,
2013-01-17 08:40:00,45.0,24.4,29.85,West,273,0.0,0.0,44,0.00,,,0.00,WeatherTracker,2013-01-17 14:40:00,
2013-01-17 08:45:00,46.2,24.4,29.85,West,273,0.0,0.0,42,0.00,,,0.00,WeatherTracker,2013-01-17 14:45:00,
2013-01-17 08:50:00,47.3,24.2,29.88,West,273,0.0,0.0,40,0.00,,,0.00,WeatherTracker,2013-01-17 14:50:00,
2013-01-17 09:00:00,48.6,23.5,29.88,ENE,68,0.0,0.0,37,0.00,,,0.00,WeatherTracker,2013-01-17 15:00:00,
2013-01-17 09:10:00,50.2,24.3,29.88,North,0,0.0,0.0,36,0.00,,,0.00,WeatherTracker,2013-01-17 15:10:00,
2013-01-17 09:15:00,50.5,24.6,29.88,North,0,0.0,0.0,36,0.00,,,0.00,WeatherTracker,2013-01-17 15:15:00,
2013-01-17 09:25:00,51.6,23.5,29.88,NNE,23,0.0,0.0,33,0.00,,,0.00,WeatherTracker,2013-01-17 15:25:00,
2013-01-17 09:35:00,52.3,22.6,29.91,NNE,32,0.0,0.0,31,0.00,,,0.00,WeatherTracker,2013-01-17 15:35:00,
2013-01-17 09:40:00,52.7,22.1,29.91,NE,55,0.0,0.0,30,0.00,,,0.00,WeatherTracker,2013-01-17 15:40:00,
2013-01-17 09:50:00,53.2,21.8,29.91,NE,42,0.0,0.0,29,0.00,,,0.00,WeatherTracker,2013-01-17 15:50:00,
2013-01-17 10:00:00,54.1,21.8,29.91,NNE,16,0.0,0.0,28,0.00,,,0.00,WeatherTracker,2013-01-17 16:00:00,
2013-01-17 10:05:00,54.5,22.1,29.91,NNE,18,0.0,0.0,28,0.00,,,0.00,WeatherTracker,2013-01-17 16:05:00,
2013-01-17 10:10:00,54.7,22.2,29.91,NE,36,0.0,0.0,28,0.00,,,0.00,WeatherTracker,2013-01-17 16:10:00,
2013-01-17 10:20:00,55.4,22.0,29.91,NNE,15,0.0,0.0,27,0.00,,,0.00,WeatherTracker,2013-01-17 16:20:00,
2013-01-17 10:25:00,55.9,22.4,29.91,North,10,0.0,0.0,27,0.00,,,0.00,WeatherTracker,2013-01-17 16:25:00,
2013-01-17 10:35:00,55.9,22.4,29.91,North,0,0.0,0.0,27,0.00,,,0.00,WeatherTracker,2013-01-17 16:35:00,
2013-01-17 10:45:00,56.3,22.8,29.91,NE,52,0.0,0.0,27,0.00,,,0.00,WeatherTracker,2013-01-17 16:45:00,
2013-01-17 10:50:00,56.7,23.1,29.94,NNE,33,0.0,0.0,27,0.00,,,0.00,WeatherTracker,2013-01-17 16:50:00,
2013-01-17 11:00:00,57.2,22.6,29.94,NNE,25,0.0,0.0,26,0.00,,,0.00,WeatherTracker,2013-01-17 17:00:00,
2013-01-17 11:05:00,57.4,21.9,29.94,NNE,19,0.0,0.0,25,0.00,,,0.00,WeatherTracker,2013-01-17 17:05:00,
2013-01-17 11:10:00,57.7,22.2,29.94,ESE,106,0.0,0.0,25,0.00,,,0.00,WeatherTracker,2013-01-17 17:10:00,
2013-01-17 11:20:00,58.5,22.8,29.91,NNE,13,0.0,0.0,25,0.00,,,0.00,WeatherTracker,2013-01-17 17:20:00,
2013-01-17 11:30:00,59.0,22.3,29.91,SW,225,0.0,0.0,24,0.00,,,0.00,WeatherTracker,2013-01-17 17:30:00,
2013-01-17 11:35:00,59.4,22.6,29.91,ESE,107,0.0,0.0,24,0.00,,,0.00,WeatherTracker,2013-01-17 17:35:00,
2013-01-17 11:45:00,60.3,23.3,29.91,SE,143,0.0,0.0,24,0.00,,,0.00,WeatherTracker,2013-01-17 17:45:00,
2013-01-17 11:50:00,60.4,23.5,29.91,NNE,12,0.0,0.0,24,0.00,,,0.00,WeatherTracker,2013-01-17 17:50:00,
2013-01-17 11:55:00,60.8,23.8,29.91,ENE,65,0.0,0.0,24,0.00,,,0.00,WeatherTracker,2013-01-17 17:55:00,
2013-01-17 12:05:00,61.5,21.2,29.91,NE,39,0.0,0.0,21,0.00,,,0.00,WeatherTracker,2013-01-17 18:05:00,
2013-01-17 12:15:00,62.2,19.5,29.91,NNE,23,0.0,0.0,19,0.00,,,0.00,WeatherTracker,2013-01-17 18:15:00,
2013-01-17 12:20:00,62.6,18.5,29.91,NE,34,0.0,0.0,18,0.00,,,0.00,WeatherTracker,2013-01-17 18:20:00,
2013-01-17 12:25:00,63.0,18.8,29.91,NNE,18,0.0,0.0,18,0.00,,,0.00,WeatherTracker,2013-01-17 18:25:00,
2013-01-17 12:30:00,63.5,19.2,29.91,NNE,16,2.0,3.0,18,0.00,,,0.00,WeatherTracker,2013-01-17 18:30:00,
2013-01-17 12:35:00,63.9,19.5,29.91,NE,40,2.0,4.0,18,0.00,,,0.00,WeatherTracker,2013-01-17 18:35:00,
2013-01-17 12:40:00,63.7,19.4,29.91,North,357,0.0,0.0,18,0.00,,,0.00,WeatherTracker,2013-01-17 18:40:00,
2013-01-17 12:45:00,63.7,19.4,29.91,ENE,71,0.0,0.0,18,0.00,,,0.00,WeatherTracker,2013-01-17 18:45:00,
2013-01-17 12:55:00,63.5,19.2,29.91,NNE,28,0.0,0.0,18,0.00,,,0.00,WeatherTracker,2013-01-17 18:55:00,
2013-01-17 13:05:00,64.0,19.7,29.88,NE,40,0.0,0.0,18,0.00,,,0.00,WeatherTracker,2013-01-17 19:05:00,
2013-01-17 13:10:00,63.9,19.5,29.88,ENE,66,0.0,0.0,18,0.00,,,0.00,WeatherTracker,2013-01-17 19:10:00,
2013-01-17 13:15:00,63.9,19.5,29.88,NNE,32,0.0,0.0,18,0.00,,,0.00,WeatherTracker,2013-01-17 19:15:00,
2013-01-17 13:25:00,63.9,16.8,29.88,NNW,344,0.0,0.0,16,0.00,,,0.00,WeatherTracker,2013-01-17 19:25:00,
2013-01-17 13:30:00,63.7,16.7,29.88,NE,48,0.0,0.0,16,0.00,,,0.00,WeatherTracker,2013-01-17 19:30:00,
2013-01-17 13:40:00,63.7,16.7,29.88,NNE,30,0.0,0.0,16,0.00,,,0.00,WeatherTracker,2013-01-17 19:40:00,
2013-01-17 13:50:00,63.5,16.5,29.88,ENE,61,0.0,0.0,16,0.00,,,0.00,WeatherTracker,2013-01-17 19:50:00,
2013-01-17 13:55:00,63.7,16.7,29.88,North,357,0.0,0.0,16,0.00,,,0.00,WeatherTracker,2013-01-17 19:55:00,
2013-01-17 14:00:00,63.7,16.7,29.88,North,11,0.0,0.0,16,0.00,,,0.00,WeatherTracker,2013-01-17 20:00:00,
2013-01-17 14:05:00,63.7,16.7,29.88,NNE,15,2.0,3.0,16,0.00,,,0.00,WeatherTracker,2013-01-17 20:05:00,
2013-01-17 14:10:00,63.9,16.8,29.88,NE,41,0.0,0.0,16,0.00,,,0.00,WeatherTracker,2013-01-17 20:10:00,
2013-01-17 14:15:00,63.9,16.8,29.88,NNE,33,0.0,0.0,16,0.00,,,0.00,WeatherTracker,2013-01-17 20:15:00,
2013-01-17 14:25:00,63.7,16.7,29.88,NE,36,0.0,0.0,16,0.00,,,0.00,WeatherTracker,2013-01-17 20:25:00,
2013-01-17 14:30:00,63.3,16.4,29.88,East,88,0.0,0.0,16,0.00,,,0.00,WeatherTracker,2013-01-17 20:30:00,
2013-01-17 14:40:00,63.0,16.1,29.88,North,5,0.0,0.0,16,0.00,,,0.00,WeatherTracker,2013-01-17 20:40:00,
2013-01-17 14:45:00,63.0,16.1,29.88,North,1,0.0,0.0,16,0.00,,,0.00,WeatherTracker,2013-01-17 20:45:00,
2013-01-17 14:55:00,63.0,16.1,29.88,NE,45,0.0,0.0,16,0.00,,,0.00,WeatherTracker,2013-01-17 20:55:00,
2013-01-17 15:00:00,63.0,16.1,29.88,NNE,33,0.0,0.0,16,0.00,,,0.00,WeatherTracker,2013-01-17 21:00:00,
2013-01-17 15:05:00,63.0,16.1,29.88,NE,52,0.0,0.0,16,0.00,,,0.00,WeatherTracker,2013-01-17 21:05:00,
2013-01-17 15:15:00,62.6,15.8,29.88,NNE,24,0.0,0.0,16,0.00,,,0.00,WeatherTracker,2013-01-17 21:15:00,
2013-01-17 15:25:00,62.2,15.5,29.88,NNE,12,0.0,0.0,16,0.00,,,0.00,WeatherTracker,2013-01-17 21:25:00,
2013-01-17 15:35:00,62.1,15.4,29.88,NNE,19,0.0,0.0,16,0.00,,,0.00,WeatherTracker,2013-01-17 21:35:00,
2013-01-17 15:40:00,61.9,15.2,29.88,North,357,0.0,0.0,16,0.00,,,0.00,WeatherTracker,2013-01-17 21:40:00,
2013-01-17 15:50:00,61.9,15.2,29.88,NNE,20,0.0,0.0,16,0.00,,,0.00,WeatherTracker,2013-01-17 21:50:00,
2013-01-17 16:00:00,61.7,15.1,29.88,NNE,22,0.0,0.0,16,0.00,,,0.00,WeatherTracker,2013-01-17 22:00:00,
2013-01-17 16:05:00,61.5,14.9,29.88,North,7,0.0,0.0,16,0.00,,,0.00,WeatherTracker,2013-01-17 22:05:00,
2013-01-17 16:15:00,61.2,14.6,29.88,ENE,74,0.0,0.0,16,0.00,,,0.00,WeatherTracker,2013-01-17 22:15:00,
2013-01-17 16:20:00,61.0,14.5,29.88,North,6,0.0,0.0,16,0.00,,,0.00,WeatherTracker,2013-01-17 22:20:00,
2013-01-17 16:30:00,60.4,15.4,29.88,North,4,0.0,0.0,17,0.00,,,0.00,WeatherTracker,2013-01-17 22:30:00,
2013-01-17 16:35:00,60.3,15.3,29.88,NNE,33,0.0,0.0,17,0.00,,,0.00,WeatherTracker,2013-01-17 22:35:00,
2013-01-17 16:40:00,60.1,15.1,29.88,North,2,0.0,0.0,17,0.00,,,0.00,WeatherTracker,2013-01-17 22:40:00,
2013-01-17 16:50:00,59.5,14.7,29.88,NNE,17,0.0,0.0,17,0.00,,,0.00,WeatherTracker,2013-01-17 22:50:00,
2013-01-17 17:00:00,59.2,17.0,29.88,NNE,21,0.0,0.0,19,0.00,,,0.00,WeatherTracker,2013-01-17 23:00:00,
2013-01-17 17:10:00,58.8,16.7,29.88,NNE,21,0.0,0.0,19,0.00,,,0.00,WeatherTracker,2013-01-17 23:10:00,
2013-01-17 17:15:00,58.5,16.4,29.88,NNE,21,0.0,0.0,19,0.00,,,0.00,WeatherTracker,2013-01-17 23:15:00,
2013-01-17 17:25:00,57.9,15.9,29.91,NNE,21,0.0,0.0,19,0.00,,,0.00,WeatherTracker,2013-01-17 23:25:00,
2013-01-17 17:35:00,57.4,15.5,29.91,NNE,18,0.0,0.0,19,0.00,,,0.00,WeatherTracker,2013-01-17 23:35:00,
2013-01-17 17:45:00,56.8,18.4,29.91,NNE,18,0.0,0.0,22,0.00,,,0.00,WeatherTracker,2013-01-17 23:45:00,
2013-01-17 17:55:00,56.3,18.0,29.91,NNE,18,0.0,0.0,22,0.00,,,0.00,WeatherTracker,2013-01-17 23:55:00,
2013-01-17 18:00:00,56.3,20.9,29.91,NNE,18,0.0,0.0,25,0.00,,,0.00,WeatherTracker,2013-01-18 00:00:00,
2013-01-17 18:10:00,55.6,20.3,29.91,NNE,18,0.0,0.0,25,0.00,,,0.00,WeatherTracker,2013-01-18 00:10:00,
2013-01-17 18:15:00,55.2,20.0,29.91,NNE,18,0.0,0.0,25,0.00,,,0.00,WeatherTracker,2013-01-18 00:15:00,
2013-01-17 18:20:00,54.9,19.7,29.91,NNE,18,0.0,0.0,25,0.00,,,0.00,WeatherTracker,2013-01-18 00:20:00,
2013-01-17 18:25:00,54.5,19.4,29.91,NNE,18,0.0,0.0,25,0.00,,,0.00,WeatherTracker,2013-01-18 00:25:00,
2013-01-17 18:35:00,54.1,20.0,29.91,NNE,18,0.0,0.0,26,0.00,,,0.00,WeatherTracker,2013-01-18 00:35:00,
2013-01-17 18:45:00,53.6,19.6,29.91,NNE,18,0.0,0.0,26,0.00,,,0.00,WeatherTracker,2013-01-18 00:45:00,
2013-01-17 18:55:00,53.1,20.0,29.91,NNE,18,0.0,0.0,27,0.00,,,0.00,WeatherTracker,2013-01-18 00:55:00,
2013-01-17 19:00:00,53.1,20.0,29.91,NNE,18,0.0,0.0,27,0.00,,,0.00,WeatherTracker,2013-01-18 01:00:00,
2013-01-17 19:10:00,52.7,19.7,29.91,NNE,18,0.0,0.0,27,0.00,,,0.00,WeatherTracker,2013-01-18 01:10:00,
2013-01-17 19:20:00,52.5,19.5,29.91,NNE,18,0.0,0.0,27,0.00,,,0.00,WeatherTracker,2013-01-18 01:20:00,
2013-01-17 19:30:00,52.2,19.2,29.91,NNE,18,0.0,0.0,27,0.00,,,0.00,WeatherTracker,2013-01-18 01:30:00,
2013-01-17 19:35:00,51.8,18.9,29.94,NNE,18,0.0,0.0,27,0.00,,,0.00,WeatherTracker,2013-01-18 01:35:00,
2013-01-17 19:45:00,51.3,19.3,29.94,NNE,18,0.0,0.0,28,0.00,,,0.00,WeatherTracker,2013-01-18 01:45:00,
2013-01-17 19:55:00,50.7,18.8,29.94,NNE,18,0.0,0.0,28,0.00,,,0.00,WeatherTracker,2013-01-18 01:55:00,
2013-01-17 20:05:00,50.2,19.2,29.94,NNE,18,0.0,0.0,29,0.00,,,0.00,WeatherTracker,2013-01-18 02:05:00,
2013-01-17 20:15:00,50.0,19.8,29.94,NNE,18,0.0,0.0,30,0.00,,,0.00,WeatherTracker,2013-01-18 02:15:00,
2013-01-17 20:20:00,49.8,20.4,29.94,NNE,18,0.0,0.0,31,0.00,,,0.00,WeatherTracker,2013-01-18 02:20:00,
2013-01-17 20:30:00,49.6,20.3,29.94,NNE,18,0.0,0.0,31,0.00,,,0.00,WeatherTracker,2013-01-18 02:30:00,
2013-01-17 20:40:00,48.7,20.9,29.94,NNE,18,0.0,0.0,33,0.00,,,0.00,WeatherTracker,2013-01-18 02:40:00,
2013-01-17 20:45:00,48.4,22.0,29.94,NNE,18,0.0,0.0,35,0.00,,,0.00,WeatherTracker,2013-01-18 02:45:00,
2013-01-17 20:55:00,48.0,23.0,29.94,NNE,19,0.0,0.0,37,0.00,,,0.00,WeatherTracker,2013-01-18 02:55:00,
2013-01-17 21:05:00,47.7,22.7,29.94,NNE,18,0.0,0.0,37,0.00,,,0.00,WeatherTracker,2013-01-18 03:05:00,
2013-01-17 21:15:00,47.3,22.4,29.94,NNE,18,0.0,0.0,37,0.00,,,0.00,WeatherTracker,2013-01-18 03:15:00,
2013-01-17 21:20:00,47.1,22.2,29.94,NNE,18,0.0,0.0,37,0.00,,,0.00,WeatherTracker,2013-01-18 03:20:00,
2013-01-17 21:30:00,46.8,22.5,29.94,NNE,18,0.0,0.0,38,0.00,,,0.00,WeatherTracker,2013-01-18 03:30:00,
2013-01-17 21:40:00,46.6,22.3,29.97,NNE,18,0.0,0.0,38,0.00,,,0.00,WeatherTracker,2013-01-18 03:40:00,
2013-01-17 21:50:00,46.2,22.6,29.97,NNE,18,0.0,0.0,39,0.00,,,0.00,WeatherTracker,2013-01-18 03:50:00,
2013-01-17 21:55:00,46.2,22.6,29.97,NNE,18,0.0,0.0,39,0.00,,,0.00,WeatherTracker,2013-01-18 03:55:00,
2013-01-17 22:05:00,45.9,22.9,29.97,NNE,18,0.0,0.0,40,0.00,,,0.00,WeatherTracker,2013-01-18 04:05:00,
2013-01-17 22:15:00,45.5,23.2,29.97,NNE,18,0.0,0.0,41,0.00,,,0.00,WeatherTracker,2013-01-18 04:15:00,
2013-01-17 22:25:00,45.1,23.4,29.97,NNE,18,0.0,0.0,42,0.00,,,0.00,WeatherTracker,2013-01-18 04:25:00,
2013-01-17 22:35:00,45.0,24.4,29.97,NNE,18,0.0,0.0,44,0.00,,,0.00,WeatherTracker,2013-01-18 04:35:00,
2013-01-17 22:40:00,44.8,24.2,29.97,NNE,19,0.0,0.0,44,0.00,,,0.00,WeatherTracker,2013-01-18 04:40:00,
2013-01-17 22:50:00,44.2,24.3,29.97,NNE,18,0.0,0.0,45,0.00,,,0.00,WeatherTracker,2013-01-18 04:50:00,
2013-01-17 23:00:00,43.9,23.9,29.97,NNE,18,0.0,0.0,45,0.00,,,0.00,WeatherTracker,2013-01-18 05:00:00,
2013-01-17 23:05:00,43.9,23.9,29.97,NNE,18,0.0,0.0,45,0.00,,,0.00,WeatherTracker,2013-01-18 05:05:00,
2013-01-17 23:15:00,43.7,24.3,29.97,NNE,18,0.0,0.0,46,0.00,,,0.00,WeatherTracker,2013-01-18 05:15:00,
2013-01-17 23:25:00,43.3,24.5,29.97,NNE,18,0.0,0.0,47,0.00,,,0.00,WeatherTracker,2013-01-18 05:25:00,
2013-01-17 23:30:00,43.3,24.5,29.97,NNE,18,0.0,0.0,47,0.00,,,0.00,WeatherTracker,2013-01-18 05:30:00,
2013-01-17 23:35:00,43.2,24.3,29.97,NNE,19,0.0,0.0,47,0.00,,,0.00,WeatherTracker,2013-01-18 05:35:00,
2013-01-17 23:40:00,43.0,24.1,29.97,NNE,18,0.0,0.0,47,0.00,,,0.00,WeatherTracker,2013-01-18 05:40:00,
2013-01-17 23:50:00,43.0,24.6,29.97,NNE,18,0.0,0.0,48,0.00,,,0.00,WeatherTracker,2013-01-18 05:50:00,